sensor_id;sensor_type;location;lat;lon;timestamp;P1;durP1;ratioP1;P2;durP2;ratioP2
15153;SDS011;7677;41.896;25.004;2022-12-18T00:02:26;9.47;;;5.53;;
15153;SDS011;7677;41.896;25.004;2022-12-18T00:04:55;8.93;;;5.47;;
15153;SDS011;7677;41.896;25.004;2022-12-18T00:07:22;9.07;;;5.47;;
15153;SDS011;7677;41.896;25.004;2022-12-18T00:09:52;7.67;;;5.53;;
15153;SDS011;7677;41.896;25.004;2022-12-18T00:12:19;7.47;;;5.13;;
15153;SDS011;7677;41.896;25.004;2022-12-18T00:14:47;8.70;;;5.33;;
15153;SDS011;7677;41.896;25.004;2022-12-18T00:17:17;8.27;;;4.07;;
15153;SDS011;7677;41.896;25.004;2022-12-18T00:19:45;7.03;;;4.80;;
15153;SDS011;7677;41.896;25.004;2022-12-18T00:22:12;8.33;;;4.33;;
15153;SDS011;7677;41.896;25.004;2022-12-18T00:24:39;9.40;;;5.20;;
15153;SDS011;7677;41.896;25.004;2022-12-18T00:27:07;6.23;;;4.50;;
15153;SDS011;7677;41.896;25.004;2022-12-18T00:29:34;5.80;;;4.30;;
15153;SDS011;7677;41.896;25.004;2022-12-18T00:32:03;5.80;;;4.13;;
15153;SDS011;7677;41.896;25.004;2022-12-18T00:34:30;7.43;;;4.80;;
15153;SDS011;7677;41.896;25.004;2022-12-18T00:36:57;6.83;;;4.30;;
15153;SDS011;7677;41.896;25.004;2022-12-18T00:39:24;8.43;;;3.97;;
15153;SDS011;7677;41.896;25.004;2022-12-18T00:41:52;7.23;;;3.63;;
15153;SDS011;7677;41.896;25.004;2022-12-18T00:44:36;8.17;;;3.80;;
15153;SDS011;7677;41.896;25.004;2022-12-18T00:47:05;13.13;;;4.50;;
15153;SDS011;7677;41.896;25.004;2022-12-18T00:49:32;4.50;;;3.43;;
15153;SDS011;7677;41.896;25.004;2022-12-18T00:51:59;4.87;;;3.77;;
15153;SDS011;7677;41.896;25.004;2022-12-18T00:54:26;9.37;;;4.17;;
15153;SDS011;7677;41.896;25.004;2022-12-18T00:56:54;5.47;;;3.20;;
15153;SDS011;7677;41.896;25.004;2022-12-18T00:59:21;6.30;;;3.70;;
15153;SDS011;7677;41.896;25.004;2022-12-18T01:01:48;5.83;;;3.37;;
15153;SDS011;7677;41.896;25.004;2022-12-18T01:04:17;5.13;;;2.93;;
15153;SDS011;7677;41.896;25.004;2022-12-18T01:06:44;2.67;;;2.47;;
15153;SDS011;7677;41.896;25.004;2022-12-18T01:09:11;4.23;;;3.13;;
15153;SDS011;7677;41.896;25.004;2022-12-18T01:11:39;2.80;;;2.43;;
15153;SDS011;7677;41.896;25.004;2022-12-18T01:14:06;3.43;;;2.30;;
15153;SDS011;7677;41.896;25.004;2022-12-18T01:16:38;2.77;;;2.53;;
15153;SDS011;7677;41.896;25.004;2022-12-18T01:19:05;5.50;;;2.60;;
15153;SDS011;7677;41.896;25.004;2022-12-18T01:21:36;6.30;;;2.77;;
15153;SDS011;7677;41.896;25.004;2022-12-18T01:24:05;3.80;;;2.30;;
15153;SDS011;7677;41.896;25.004;2022-12-18T01:26:33;3.07;;;2.43;;
15153;SDS011;7677;41.896;25.004;2022-12-18T01:29:00;2.60;;;2.10;;
15153;SDS011;7677;41.896;25.004;2022-12-18T01:31:28;3.83;;;2.13;;
15153;SDS011;7677;41.896;25.004;2022-12-18T01:34:00;3.87;;;3.30;;
15153;SDS011;7677;41.896;25.004;2022-12-18T01:36:28;5.67;;;3.20;;
15153;SDS011;7677;41.896;25.004;2022-12-18T01:38:58;4.07;;;2.97;;
15153;SDS011;7677;41.896;25.004;2022-12-18T01:41:27;5.73;;;3.40;;
15153;SDS011;7677;41.896;25.004;2022-12-18T01:47:18;4.07;;;2.93;;
15153;SDS011;7677;41.896;25.004;2022-12-18T01:49:52;3.90;;;2.60;;
15153;SDS011;7677;41.896;25.004;2022-12-18T01:52:19;3.90;;;2.77;;
15153;SDS011;7677;41.896;25.004;2022-12-18T01:54:48;4.53;;;2.77;;
15153;SDS011;7677;41.896;25.004;2022-12-18T01:57:17;7.67;;;2.80;;
15153;SDS011;7677;41.896;25.004;2022-12-18T01:59:45;5.13;;;2.63;;
15153;SDS011;7677;41.896;25.004;2022-12-18T02:02:15;3.60;;;2.60;;
15153;SDS011;7677;41.896;25.004;2022-12-18T02:04:45;4.33;;;3.10;;
15153;SDS011;7677;41.896;25.004;2022-12-18T02:07:17;6.47;;;2.63;;
15153;SDS011;7677;41.896;25.004;2022-12-18T02:09:54;3.17;;;2.40;;
15153;SDS011;7677;41.896;25.004;2022-12-18T02:12:25;3.50;;;2.53;;
15153;SDS011;7677;41.896;25.004;2022-12-18T02:14:58;3.60;;;2.40;;
15153;SDS011;7677;41.896;25.004;2022-12-18T02:17:30;2.60;;;2.37;;
15153;SDS011;7677;41.896;25.004;2022-12-18T02:20:04;5.87;;;3.50;;
15153;SDS011;7677;41.896;25.004;2022-12-18T02:22:37;6.17;;;4.13;;
15153;SDS011;7677;41.896;25.004;2022-12-18T02:25:16;12.20;;;4.50;;
15153;SDS011;7677;41.896;25.004;2022-12-18T02:27:51;6.37;;;4.30;;
15153;SDS011;7677;41.896;25.004;2022-12-18T02:30:19;6.07;;;4.00;;
15153;SDS011;7677;41.896;25.004;2022-12-18T02:32:48;7.73;;;4.03;;
15153;SDS011;7677;41.896;25.004;2022-12-18T02:35:17;5.60;;;3.83;;
15153;SDS011;7677;41.896;25.004;2022-12-18T02:37:49;3.93;;;3.23;;
15153;SDS011;7677;41.896;25.004;2022-12-18T02:40:26;8.13;;;2.93;;
15153;SDS011;7677;41.896;25.004;2022-12-18T02:42:56;7.70;;;4.40;;
15153;SDS011;7677;41.896;25.004;2022-12-18T02:45:30;9.20;;;4.90;;
15153;SDS011;7677;41.896;25.004;2022-12-18T02:47:57;7.57;;;4.37;;
15153;SDS011;7677;41.896;25.004;2022-12-18T02:50:26;5.77;;;3.70;;
15153;SDS011;7677;41.896;25.004;2022-12-18T02:53:00;7.17;;;4.53;;
15153;SDS011;7677;41.896;25.004;2022-12-18T02:55:39;5.60;;;3.37;;
15153;SDS011;7677;41.896;25.004;2022-12-18T02:58:14;6.53;;;3.97;;
15153;SDS011;7677;41.896;25.004;2022-12-18T03:03:29;6.20;;;3.87;;
15153;SDS011;7677;41.896;25.004;2022-12-18T03:06:04;5.87;;;3.60;;
15153;SDS011;7677;41.896;25.004;2022-12-18T03:08:34;5.70;;;3.83;;
15153;SDS011;7677;41.896;25.004;2022-12-18T03:11:06;3.67;;;3.03;;
15153;SDS011;7677;41.896;25.004;2022-12-18T03:13:39;7.87;;;3.33;;
15153;SDS011;7677;41.896;25.004;2022-12-18T03:16:12;6.07;;;4.13;;
15153;SDS011;7677;41.896;25.004;2022-12-18T03:18:43;6.20;;;4.10;;
15153;SDS011;7677;41.896;25.004;2022-12-18T03:21:15;9.90;;;4.50;;
15153;SDS011;7677;41.896;25.004;2022-12-18T03:23:47;9.77;;;4.70;;
15153;SDS011;7677;41.896;25.004;2022-12-18T03:26:16;9.13;;;4.60;;
15153;SDS011;7677;41.896;25.004;2022-12-18T03:28:49;6.03;;;4.57;;
15153;SDS011;7677;41.896;25.004;2022-12-18T03:31:20;5.87;;;4.07;;
15153;SDS011;7677;41.896;25.004;2022-12-18T03:33:53;6.03;;;4.47;;
15153;SDS011;7677;41.896;25.004;2022-12-18T03:36:24;4.60;;;3.63;;
15153;SDS011;7677;41.896;25.004;2022-12-18T03:38:51;4.20;;;3.80;;
15153;SDS011;7677;41.896;25.004;2022-12-18T03:41:23;9.70;;;3.97;;
15153;SDS011;7677;41.896;25.004;2022-12-18T03:44:00;7.93;;;3.07;;
15153;SDS011;7677;41.896;25.004;2022-12-18T03:46:38;4.13;;;2.60;;
15153;SDS011;7677;41.896;25.004;2022-12-18T03:49:10;5.03;;;2.60;;
15153;SDS011;7677;41.896;25.004;2022-12-18T03:51:42;6.23;;;2.67;;
15153;SDS011;7677;41.896;25.004;2022-12-18T03:54:16;5.40;;;3.00;;
15153;SDS011;7677;41.896;25.004;2022-12-18T03:56:47;3.10;;;2.70;;
15153;SDS011;7677;41.896;25.004;2022-12-18T03:59:17;7.30;;;3.77;;
15153;SDS011;7677;41.896;25.004;2022-12-18T04:01:45;7.13;;;5.03;;
15153;SDS011;7677;41.896;25.004;2022-12-18T04:04:15;5.77;;;3.47;;
15153;SDS011;7677;41.896;25.004;2022-12-18T04:06:43;8.23;;;5.07;;
15153;SDS011;7677;41.896;25.004;2022-12-18T04:09:12;10.97;;;5.07;;
15153;SDS011;7677;41.896;25.004;2022-12-18T04:11:39;9.43;;;5.73;;
15153;SDS011;7677;41.896;25.004;2022-12-18T04:14:07;7.87;;;4.13;;
15153;SDS011;7677;41.896;25.004;2022-12-18T04:16:36;5.03;;;4.40;;
15153;SDS011;7677;41.896;25.004;2022-12-18T04:19:03;12.60;;;6.00;;
15153;SDS011;7677;41.896;25.004;2022-12-18T04:21:30;14.73;;;5.53;;
15153;SDS011;7677;41.896;25.004;2022-12-18T04:23:58;13.60;;;6.70;;
15153;SDS011;7677;41.896;25.004;2022-12-18T04:26:25;8.70;;;6.23;;
15153;SDS011;7677;41.896;25.004;2022-12-18T04:28:52;8.47;;;4.43;;
15153;SDS011;7677;41.896;25.004;2022-12-18T04:31:20;9.03;;;5.13;;
15153;SDS011;7677;41.896;25.004;2022-12-18T04:33:49;8.30;;;4.93;;
15153;SDS011;7677;41.896;25.004;2022-12-18T04:36:16;8.60;;;5.30;;
15153;SDS011;7677;41.896;25.004;2022-12-18T04:38:43;8.27;;;4.60;;
15153;SDS011;7677;41.896;25.004;2022-12-18T04:41:12;10.33;;;4.77;;
15153;SDS011;7677;41.896;25.004;2022-12-18T04:43:39;6.70;;;3.97;;
15153;SDS011;7677;41.896;25.004;2022-12-18T04:46:07;6.77;;;4.33;;
15153;SDS011;7677;41.896;25.004;2022-12-18T04:48:34;8.47;;;4.70;;
15153;SDS011;7677;41.896;25.004;2022-12-18T04:51:04;11.37;;;5.00;;
15153;SDS011;7677;41.896;25.004;2022-12-18T04:53:32;7.53;;;4.57;;
15153;SDS011;7677;41.896;25.004;2022-12-18T04:56:03;12.83;;;5.17;;
15153;SDS011;7677;41.896;25.004;2022-12-18T04:58:31;7.83;;;5.30;;
15153;SDS011;7677;41.896;25.004;2022-12-18T05:00:59;8.50;;;5.60;;
15153;SDS011;7677;41.896;25.004;2022-12-18T05:03:26;6.37;;;5.00;;
15153;SDS011;7677;41.896;25.004;2022-12-18T05:05:53;7.97;;;5.50;;
15153;SDS011;7677;41.896;25.004;2022-12-18T05:08:22;7.63;;;4.73;;
15153;SDS011;7677;41.896;25.004;2022-12-18T05:10:49;6.63;;;4.33;;
15153;SDS011;7677;41.896;25.004;2022-12-18T05:13:17;10.27;;;6.87;;
15153;SDS011;7677;41.896;25.004;2022-12-18T05:15:50;11.20;;;7.93;;
15153;SDS011;7677;41.896;25.004;2022-12-18T05:18:18;12.87;;;7.87;;
15153;SDS011;7677;41.896;25.004;2022-12-18T05:20:45;14.80;;;7.93;;
15153;SDS011;7677;41.896;25.004;2022-12-18T05:23:12;18.70;;;10.40;;
15153;SDS011;7677;41.896;25.004;2022-12-18T05:25:41;17.07;;;9.60;;
15153;SDS011;7677;41.896;25.004;2022-12-18T05:28:08;17.50;;;10.63;;
15153;SDS011;7677;41.896;25.004;2022-12-18T05:30:35;15.17;;;9.00;;
15153;SDS011;7677;41.896;25.004;2022-12-18T05:33:03;15.60;;;9.73;;
15153;SDS011;7677;41.896;25.004;2022-12-18T05:35:30;16.50;;;9.60;;
15153;SDS011;7677;41.896;25.004;2022-12-18T05:37:57;20.10;;;12.17;;
15153;SDS011;7677;41.896;25.004;2022-12-18T05:40:24;22.67;;;12.87;;
15153;SDS011;7677;41.896;25.004;2022-12-18T05:42:53;19.50;;;13.50;;
15153;SDS011;7677;41.896;25.004;2022-12-18T05:45:20;25.53;;;13.40;;
15153;SDS011;7677;41.896;25.004;2022-12-18T05:47:48;20.67;;;11.47;;
15153;SDS011;7677;41.896;25.004;2022-12-18T05:50:15;20.03;;;13.43;;
15153;SDS011;7677;41.896;25.004;2022-12-18T05:52:42;26.93;;;17.43;;
15153;SDS011;7677;41.896;25.004;2022-12-18T05:55:09;26.03;;;15.90;;
15153;SDS011;7677;41.896;25.004;2022-12-18T05:57:36;25.03;;;13.67;;
15153;SDS011;7677;41.896;25.004;2022-12-18T06:00:06;24.63;;;15.67;;
15153;SDS011;7677;41.896;25.004;2022-12-18T06:02:34;20.70;;;12.47;;
15153;SDS011;7677;41.896;25.004;2022-12-18T06:05:01;27.20;;;13.70;;
15153;SDS011;7677;41.896;25.004;2022-12-18T06:07:28;16.17;;;10.97;;
15153;SDS011;7677;41.896;25.004;2022-12-18T06:09:55;24.70;;;12.13;;
15153;SDS011;7677;41.896;25.004;2022-12-18T06:12:22;24.43;;;12.17;;
15153;SDS011;7677;41.896;25.004;2022-12-18T06:14:50;23.63;;;13.17;;
15153;SDS011;7677;41.896;25.004;2022-12-18T06:17:18;28.70;;;13.93;;
15153;SDS011;7677;41.896;25.004;2022-12-18T06:19:46;22.53;;;12.40;;
15153;SDS011;7677;41.896;25.004;2022-12-18T06:22:13;25.27;;;13.43;;
15153;SDS011;7677;41.896;25.004;2022-12-18T06:24:40;23.50;;;12.93;;
15153;SDS011;7677;41.896;25.004;2022-12-18T06:27:07;23.60;;;13.90;;
15153;SDS011;7677;41.896;25.004;2022-12-18T06:29:34;28.20;;;14.10;;
15153;SDS011;7677;41.896;25.004;2022-12-18T06:32:02;28.13;;;15.60;;
15153;SDS011;7677;41.896;25.004;2022-12-18T06:34:30;31.87;;;16.40;;
15153;SDS011;7677;41.896;25.004;2022-12-18T06:36:58;28.07;;;15.73;;
15153;SDS011;7677;41.896;25.004;2022-12-18T06:39:27;32.00;;;20.00;;
15153;SDS011;7677;41.896;25.004;2022-12-18T06:41:54;46.00;;;24.77;;
15153;SDS011;7677;41.896;25.004;2022-12-18T06:44:21;34.93;;;20.27;;
15153;SDS011;7677;41.896;25.004;2022-12-18T06:46:48;41.47;;;24.23;;
15153;SDS011;7677;41.896;25.004;2022-12-18T06:49:16;33.03;;;16.67;;
15153;SDS011;7677;41.896;25.004;2022-12-18T06:51:45;30.87;;;15.73;;
15153;SDS011;7677;41.896;25.004;2022-12-18T06:54:12;28.77;;;16.60;;
15153;SDS011;7677;41.896;25.004;2022-12-18T06:56:40;34.17;;;17.07;;
15153;SDS011;7677;41.896;25.004;2022-12-18T06:59:07;27.80;;;16.17;;
15153;SDS011;7677;41.896;25.004;2022-12-18T07:01:34;30.10;;;17.03;;
15153;SDS011;7677;41.896;25.004;2022-12-18T07:04:01;30.03;;;17.57;;
15153;SDS011;7677;41.896;25.004;2022-12-18T07:06:29;36.57;;;18.20;;
15153;SDS011;7677;41.896;25.004;2022-12-18T07:08:59;33.90;;;17.80;;
15153;SDS011;7677;41.896;25.004;2022-12-18T07:11:26;27.00;;;17.83;;
15153;SDS011;7677;41.896;25.004;2022-12-18T07:13:53;33.57;;;18.57;;
15153;SDS011;7677;41.896;25.004;2022-12-18T07:16:20;36.40;;;19.87;;
15153;SDS011;7677;41.896;25.004;2022-12-18T07:18:48;47.50;;;21.90;;
15153;SDS011;7677;41.896;25.004;2022-12-18T07:21:17;37.70;;;22.00;;
15153;SDS011;7677;41.896;25.004;2022-12-18T07:23:46;46.27;;;23.50;;
15153;SDS011;7677;41.896;25.004;2022-12-18T07:26:15;43.60;;;21.23;;
15153;SDS011;7677;41.896;25.004;2022-12-18T07:28:44;42.73;;;22.40;;
15153;SDS011;7677;41.896;25.004;2022-12-18T07:31:11;45.70;;;22.00;;
15153;SDS011;7677;41.896;25.004;2022-12-18T07:33:40;47.67;;;22.80;;
15153;SDS011;7677;41.896;25.004;2022-12-18T07:36:08;51.50;;;24.17;;
15153;SDS011;7677;41.896;25.004;2022-12-18T07:38:36;54.40;;;27.43;;
15153;SDS011;7677;41.896;25.004;2022-12-18T07:41:04;68.43;;;33.70;;
15153;SDS011;7677;41.896;25.004;2022-12-18T07:43:34;64.20;;;33.67;;
15153;SDS011;7677;41.896;25.004;2022-12-18T07:46:02;67.07;;;31.50;;
15153;SDS011;7677;41.896;25.004;2022-12-18T07:48:29;58.37;;;27.63;;
15153;SDS011;7677;41.896;25.004;2022-12-18T07:50:57;59.97;;;29.33;;
15153;SDS011;7677;41.896;25.004;2022-12-18T07:53:25;63.30;;;30.40;;
15153;SDS011;7677;41.896;25.004;2022-12-18T07:55:54;52.73;;;26.83;;
15153;SDS011;7677;41.896;25.004;2022-12-18T07:58:22;53.57;;;26.17;;
15153;SDS011;7677;41.896;25.004;2022-12-18T08:00:51;50.53;;;24.37;;
15153;SDS011;7677;41.896;25.004;2022-12-18T08:03:19;39.83;;;21.93;;
15153;SDS011;7677;41.896;25.004;2022-12-18T08:05:46;44.40;;;23.00;;
15153;SDS011;7677;41.896;25.004;2022-12-18T08:08:13;40.80;;;19.93;;
15153;SDS011;7677;41.896;25.004;2022-12-18T08:10:40;36.37;;;19.23;;
15153;SDS011;7677;41.896;25.004;2022-12-18T08:13:07;53.93;;;25.03;;
15153;SDS011;7677;41.896;25.004;2022-12-18T08:15:35;52.93;;;29.90;;
15153;SDS011;7677;41.896;25.004;2022-12-18T08:18:03;56.97;;;27.83;;
15153;SDS011;7677;41.896;25.004;2022-12-18T08:20:31;49.23;;;25.90;;
15153;SDS011;7677;41.896;25.004;2022-12-18T08:22:58;53.60;;;29.20;;
15153;SDS011;7677;41.896;25.004;2022-12-18T08:25:26;58.87;;;30.87;;
15153;SDS011;7677;41.896;25.004;2022-12-18T08:27:53;56.63;;;28.60;;
15153;SDS011;7677;41.896;25.004;2022-12-18T08:30:21;55.80;;;30.30;;
15153;SDS011;7677;41.896;25.004;2022-12-18T08:32:50;65.43;;;32.13;;
15153;SDS011;7677;41.896;25.004;2022-12-18T08:35:19;48.13;;;23.37;;
15153;SDS011;7677;41.896;25.004;2022-12-18T08:37:47;35.20;;;18.63;;
15153;SDS011;7677;41.896;25.004;2022-12-18T08:40:14;36.10;;;18.80;;
15153;SDS011;7677;41.896;25.004;2022-12-18T08:42:41;37.63;;;18.67;;
15153;SDS011;7677;41.896;25.004;2022-12-18T08:45:26;44.30;;;23.20;;
15153;SDS011;7677;41.896;25.004;2022-12-18T08:47:54;41.10;;;22.60;;
15153;SDS011;7677;41.896;25.004;2022-12-18T08:50:22;44.60;;;22.03;;
15153;SDS011;7677;41.896;25.004;2022-12-18T08:52:50;36.63;;;20.03;;
15153;SDS011;7677;41.896;25.004;2022-12-18T08:55:17;47.20;;;25.33;;
15153;SDS011;7677;41.896;25.004;2022-12-18T08:57:47;68.43;;;37.33;;
15153;SDS011;7677;41.896;25.004;2022-12-18T09:00:15;66.93;;;34.87;;
15153;SDS011;7677;41.896;25.004;2022-12-18T09:02:43;62.27;;;33.00;;
15153;SDS011;7677;41.896;25.004;2022-12-18T09:05:10;56.37;;;28.37;;
15153;SDS011;7677;41.896;25.004;2022-12-18T09:07:39;56.73;;;29.27;;
15153;SDS011;7677;41.896;25.004;2022-12-18T09:10:06;48.47;;;26.67;;
15153;SDS011;7677;41.896;25.004;2022-12-18T09:12:34;46.10;;;25.53;;
15153;SDS011;7677;41.896;25.004;2022-12-18T09:15:01;50.07;;;27.80;;
15153;SDS011;7677;41.896;25.004;2022-12-18T09:17:28;50.70;;;27.90;;
15153;SDS011;7677;41.896;25.004;2022-12-18T09:19:56;45.47;;;25.70;;
15153;SDS011;7677;41.896;25.004;2022-12-18T09:22:23;41.83;;;23.13;;
15153;SDS011;7677;41.896;25.004;2022-12-18T09:24:51;37.87;;;22.17;;
15153;SDS011;7677;41.896;25.004;2022-12-18T09:27:19;29.33;;;16.67;;
15153;SDS011;7677;41.896;25.004;2022-12-18T09:29:47;27.60;;;16.90;;
15153;SDS011;7677;41.896;25.004;2022-12-18T09:32:14;33.80;;;20.77;;
15153;SDS011;7677;41.896;25.004;2022-12-18T09:34:41;32.87;;;19.60;;
15153;SDS011;7677;41.896;25.004;2022-12-18T09:37:09;25.87;;;15.97;;
15153;SDS011;7677;41.896;25.004;2022-12-18T09:39:36;30.63;;;17.73;;
15153;SDS011;7677;41.896;25.004;2022-12-18T09:42:09;25.43;;;15.43;;
15153;SDS011;7677;41.896;25.004;2022-12-18T09:44:39;54.47;;;23.60;;
15153;SDS011;7677;41.896;25.004;2022-12-18T09:47:09;92.93;;;38.57;;
15153;SDS011;7677;41.896;25.004;2022-12-18T09:49:40;47.80;;;27.60;;
15153;SDS011;7677;41.896;25.004;2022-12-18T09:52:11;32.80;;;19.23;;
15153;SDS011;7677;41.896;25.004;2022-12-18T09:54:41;29.07;;;17.87;;
15153;SDS011;7677;41.896;25.004;2022-12-18T09:57:14;23.03;;;15.40;;
15153;SDS011;7677;41.896;25.004;2022-12-18T09:59:42;26.60;;;15.83;;
15153;SDS011;7677;41.896;25.004;2022-12-18T10:02:15;29.93;;;15.40;;
15153;SDS011;7677;41.896;25.004;2022-12-18T10:04:44;23.43;;;15.20;;
15153;SDS011;7677;41.896;25.004;2022-12-18T10:07:18;25.83;;;14.03;;
15153;SDS011;7677;41.896;25.004;2022-12-18T10:09:49;19.40;;;12.50;;
15153;SDS011;7677;41.896;25.004;2022-12-18T10:12:23;16.97;;;11.80;;
15153;SDS011;7677;41.896;25.004;2022-12-18T10:14:56;22.53;;;14.10;;
15153;SDS011;7677;41.896;25.004;2022-12-18T10:17:31;23.27;;;13.53;;
15153;SDS011;7677;41.896;25.004;2022-12-18T10:20:05;20.97;;;13.43;;
15153;SDS011;7677;41.896;25.004;2022-12-18T10:22:42;20.37;;;12.37;;
15153;SDS011;7677;41.896;25.004;2022-12-18T10:25:17;20.63;;;12.73;;
15153;SDS011;7677;41.896;25.004;2022-12-18T10:27:49;19.43;;;11.73;;
15153;SDS011;7677;41.896;25.004;2022-12-18T10:30:19;25.60;;;13.23;;
15153;SDS011;7677;41.896;25.004;2022-12-18T10:32:48;20.53;;;12.77;;
15153;SDS011;7677;41.896;25.004;2022-12-18T10:35:17;18.67;;;12.57;;
15153;SDS011;7677;41.896;25.004;2022-12-18T10:38:02;17.80;;;10.80;;
15153;SDS011;7677;41.896;25.004;2022-12-18T10:40:32;12.87;;;9.07;;
15153;SDS011;7677;41.896;25.004;2022-12-18T10:43:11;14.63;;;11.10;;
15153;SDS011;7677;41.896;25.004;2022-12-18T10:45:39;18.67;;;15.60;;
15153;SDS011;7677;41.896;25.004;2022-12-18T10:48:17;21.53;;;14.57;;
15153;SDS011;7677;41.896;25.004;2022-12-18T10:50:46;18.43;;;9.77;;
15153;SDS011;7677;41.896;25.004;2022-12-18T10:53:18;15.97;;;11.60;;
15153;SDS011;7677;41.896;25.004;2022-12-18T10:55:47;18.43;;;11.23;;
15153;SDS011;7677;41.896;25.004;2022-12-18T10:58:22;16.40;;;10.93;;
15153;SDS011;7677;41.896;25.004;2022-12-18T11:01:01;18.57;;;11.97;;
15153;SDS011;7677;41.896;25.004;2022-12-18T11:03:34;20.20;;;12.10;;
15153;SDS011;7677;41.896;25.004;2022-12-18T11:06:03;16.73;;;11.80;;
15153;SDS011;7677;41.896;25.004;2022-12-18T11:08:32;18.57;;;10.50;;
15153;SDS011;7677;41.896;25.004;2022-12-18T11:10:59;12.10;;;9.03;;
15153;SDS011;7677;41.896;25.004;2022-12-18T11:13:29;16.17;;;11.30;;
15153;SDS011;7677;41.896;25.004;2022-12-18T11:15:57;14.37;;;12.27;;
15153;SDS011;7677;41.896;25.004;2022-12-18T11:18:27;17.73;;;13.13;;
15153;SDS011;7677;41.896;25.004;2022-12-18T11:20:56;23.03;;;15.73;;
15153;SDS011;7677;41.896;25.004;2022-12-18T11:23:25;20.67;;;11.20;;
15153;SDS011;7677;41.896;25.004;2022-12-18T11:25:54;13.97;;;9.23;;
15153;SDS011;7677;41.896;25.004;2022-12-18T11:28:37;16.13;;;8.90;;
15153;SDS011;7677;41.896;25.004;2022-12-18T11:31:17;15.57;;;11.30;;
15153;SDS011;7677;41.896;25.004;2022-12-18T11:33:47;18.93;;;11.83;;
15153;SDS011;7677;41.896;25.004;2022-12-18T11:36:19;18.30;;;14.23;;
15153;SDS011;7677;41.896;25.004;2022-12-18T11:38:48;15.83;;;11.97;;
15153;SDS011;7677;41.896;25.004;2022-12-18T11:41:19;22.40;;;16.37;;
15153;SDS011;7677;41.896;25.004;2022-12-18T11:43:50;22.23;;;14.47;;
15153;SDS011;7677;41.896;25.004;2022-12-18T11:46:23;23.37;;;18.73;;
15153;SDS011;7677;41.896;25.004;2022-12-18T11:48:54;17.20;;;11.53;;
15153;SDS011;7677;41.896;25.004;2022-12-18T11:51:25;28.27;;;22.83;;
15153;SDS011;7677;41.896;25.004;2022-12-18T11:55:27;19.20;;;14.63;;
15153;SDS011;7677;41.896;25.004;2022-12-18T11:57:59;18.33;;;13.43;;
15153;SDS011;7677;41.896;25.004;2022-12-18T12:00:31;14.87;;;11.20;;
15153;SDS011;7677;41.896;25.004;2022-12-18T12:03:08;15.73;;;11.97;;
15153;SDS011;7677;41.896;25.004;2022-12-18T12:05:59;19.43;;;12.70;;
15153;SDS011;7677;41.896;25.004;2022-12-18T12:08:34;17.20;;;12.10;;
15153;SDS011;7677;41.896;25.004;2022-12-18T12:11:13;13.43;;;7.77;;
15153;SDS011;7677;41.896;25.004;2022-12-18T12:13:47;10.40;;;6.67;;
15153;SDS011;7677;41.896;25.004;2022-12-18T12:16:21;13.03;;;8.10;;
15153;SDS011;7677;41.896;25.004;2022-12-18T12:18:54;11.30;;;8.23;;
15153;SDS011;7677;41.896;25.004;2022-12-18T12:21:28;11.60;;;7.40;;
15153;SDS011;7677;41.896;25.004;2022-12-18T12:24:02;11.13;;;7.40;;
15153;SDS011;7677;41.896;25.004;2022-12-18T12:26:45;10.10;;;7.33;;
15153;SDS011;7677;41.896;25.004;2022-12-18T12:29:20;18.33;;;13.03;;
15153;SDS011;7677;41.896;25.004;2022-12-18T12:31:59;14.07;;;10.57;;
15153;SDS011;7677;41.896;25.004;2022-12-18T12:34:33;14.13;;;9.00;;
15153;SDS011;7677;41.896;25.004;2022-12-18T12:37:08;13.77;;;8.03;;
15153;SDS011;7677;41.896;25.004;2022-12-18T12:39:42;15.20;;;9.47;;
15153;SDS011;7677;41.896;25.004;2022-12-18T12:42:15;12.80;;;8.57;;
15153;SDS011;7677;41.896;25.004;2022-12-18T12:45:14;12.80;;;7.30;;
15153;SDS011;7677;41.896;25.004;2022-12-18T12:47:44;12.80;;;8.13;;
15153;SDS011;7677;41.896;25.004;2022-12-18T12:50:13;21.27;;;11.53;;
15153;SDS011;7677;41.896;25.004;2022-12-18T12:52:42;17.97;;;11.83;;
15153;SDS011;7677;41.896;25.004;2022-12-18T12:55:13;19.27;;;10.53;;
15153;SDS011;7677;41.896;25.004;2022-12-18T12:57:45;14.17;;;9.20;;
15153;SDS011;7677;41.896;25.004;2022-12-18T13:00:18;18.00;;;11.57;;
15153;SDS011;7677;41.896;25.004;2022-12-18T13:02:48;20.30;;;12.10;;
15153;SDS011;7677;41.896;25.004;2022-12-18T13:05:19;22.33;;;16.40;;
15153;SDS011;7677;41.896;25.004;2022-12-18T13:07:51;20.93;;;15.27;;
15153;SDS011;7677;41.896;25.004;2022-12-18T13:10:23;21.93;;;15.03;;
15153;SDS011;7677;41.896;25.004;2022-12-18T13:12:55;22.37;;;14.67;;
15153;SDS011;7677;41.896;25.004;2022-12-18T13:15:23;24.30;;;14.20;;
15153;SDS011;7677;41.896;25.004;2022-12-18T13:18:03;17.87;;;11.17;;
15153;SDS011;7677;41.896;25.004;2022-12-18T13:20:35;27.07;;;16.83;;
15153;SDS011;7677;41.896;25.004;2022-12-18T13:23:18;77.77;;;41.23;;
15153;SDS011;7677;41.896;25.004;2022-12-18T13:25:56;70.57;;;40.80;;
15153;SDS011;7677;41.896;25.004;2022-12-18T13:28:39;42.67;;;24.33;;
15153;SDS011;7677;41.896;25.004;2022-12-18T13:34:34;19.07;;;12.40;;
15153;SDS011;7677;41.896;25.004;2022-12-18T13:43:26;17.63;;;11.20;;
15153;SDS011;7677;41.896;25.004;2022-12-18T13:46:02;20.23;;;12.30;;
15153;SDS011;7677;41.896;25.004;2022-12-18T13:48:32;20.37;;;11.90;;
15153;SDS011;7677;41.896;25.004;2022-12-18T13:51:02;16.73;;;10.90;;
15153;SDS011;7677;41.896;25.004;2022-12-18T13:53:33;18.53;;;11.20;;
15153;SDS011;7677;41.896;25.004;2022-12-18T13:56:03;15.40;;;9.80;;
15153;SDS011;7677;41.896;25.004;2022-12-18T13:58:32;16.07;;;9.07;;
15153;SDS011;7677;41.896;25.004;2022-12-18T14:00:59;18.87;;;14.07;;
15153;SDS011;7677;41.896;25.004;2022-12-18T14:03:29;17.53;;;12.50;;
15153;SDS011;7677;41.896;25.004;2022-12-18T14:06:02;16.70;;;11.63;;
15153;SDS011;7677;41.896;25.004;2022-12-18T14:08:36;18.93;;;12.17;;
15153;SDS011;7677;41.896;25.004;2022-12-18T14:11:05;19.33;;;12.87;;
15153;SDS011;7677;41.896;25.004;2022-12-18T14:13:35;21.50;;;13.23;;
15153;SDS011;7677;41.896;25.004;2022-12-18T14:16:04;18.13;;;12.13;;
15153;SDS011;7677;41.896;25.004;2022-12-18T14:18:36;16.73;;;9.90;;
15153;SDS011;7677;41.896;25.004;2022-12-18T14:21:14;15.63;;;11.33;;
15153;SDS011;7677;41.896;25.004;2022-12-18T14:23:44;20.40;;;12.17;;
15153;SDS011;7677;41.896;25.004;2022-12-18T14:26:20;19.33;;;12.33;;
15153;SDS011;7677;41.896;25.004;2022-12-18T14:28:53;23.27;;;12.10;;
15153;SDS011;7677;41.896;25.004;2022-12-18T14:31:21;22.67;;;14.50;;
15153;SDS011;7677;41.896;25.004;2022-12-18T14:33:50;34.83;;;21.83;;
15153;SDS011;7677;41.896;25.004;2022-12-18T14:36:18;21.80;;;15.80;;
15153;SDS011;7677;41.896;25.004;2022-12-18T14:38:48;26.40;;;16.80;;
15153;SDS011;7677;41.896;25.004;2022-12-18T14:41:17;33.33;;;19.20;;
15153;SDS011;7677;41.896;25.004;2022-12-18T14:43:46;33.47;;;17.27;;
15153;SDS011;7677;41.896;25.004;2022-12-18T14:46:32;20.73;;;11.27;;
15153;SDS011;7677;41.896;25.004;2022-12-18T14:49:01;29.27;;;17.70;;
15153;SDS011;7677;41.896;25.004;2022-12-18T14:51:30;25.13;;;15.77;;
15153;SDS011;7677;41.896;25.004;2022-12-18T14:53:59;21.77;;;14.13;;
15153;SDS011;7677;41.896;25.004;2022-12-18T14:56:27;19.23;;;12.57;;
15153;SDS011;7677;41.896;25.004;2022-12-18T14:58:58;20.50;;;13.33;;
15153;SDS011;7677;41.896;25.004;2022-12-18T15:01:33;14.07;;;9.67;;
15153;SDS011;7677;41.896;25.004;2022-12-18T15:04:03;13.70;;;9.20;;
15153;SDS011;7677;41.896;25.004;2022-12-18T15:11:45;16.90;;;10.77;;